Time;durP1;ratioP1;P1;durP2;ratioP2;P2;SDS_P1;SDS_P2;PMS_P1;PMS_P2;Temp;Humidity;BMP_temperature;BMP_pressure;BME280_temperature;BME280_humidity;BME280_pressure;Samples;Min_cycle;Max_cycle;Signal;HPM_P1;HPM_P2
2023/06/27 00:00:21;;;;;;;9.48;2.08;;;15.80;99.90;;;;;;4200879;28;20045;-83
2023/06/27 00:02:22;;;;;;;6.65;2.20;;;15.80;99.90;;;;;;4200958;28;20489;-83
2023/06/27 00:04:23;;;;;;;3.50;1.63;;;15.80;99.90;;;;;;4216379;28;20130;-84
2023/06/27 00:06:24;;;;;;;11.15;1.90;;;15.80;99.90;;;;;;4198318;28;20044;-84
2023/06/27 00:08:24;;;;;;;4.88;1.90;;;15.80;99.90;;;;;;4202711;28;20067;-83
2023/06/27 00:10:25;;;;;;;4.50;1.70;;;15.80;99.90;;;;;;4198567;28;20040;-83
2023/06/27 00:12:26;;;;;;;6.78;1.90;;;15.80;99.90;;;;;;4208242;28;20546;-84
2023/06/27 00:14:27;;;;;;;6.65;1.77;;;15.80;99.90;;;;;;4204115;28;20052;-83
2023/06/27 00:16:32;;;;;;;8.60;2.15;;;15.80;99.90;;;;;;4210165;28;20048;-84
2023/06/27 00:18:34;;;;;;;5.05;1.90;;;15.80;99.90;;;;;;4214980;28;20059;-83
2023/06/27 00:20:35;;;;;;;4.93;1.75;;;15.80;99.90;;;;;;4214837;28;20048;-83
2023/06/27 00:22:40;;;;;;;2.65;1.48;;;15.70;99.90;;;;;;4216239;28;20048;-83
2023/06/27 00:24:41;;;;;;;4.97;1.65;;;15.70;99.90;;;;;;4217089;28;20051;-83
2023/06/27 00:26:43;;;;;;;5.40;1.92;;;15.70;99.90;;;;;;4218093;28;20545;-84
2023/06/27 00:28:44;;;;;;;9.70;2.20;;;15.70;99.90;;;;;;4215795;28;20492;-83
2023/06/27 00:30:45;;;;;;;11.88;1.98;;;15.70;99.90;;;;;;4217169;28;20097;-83
2023/06/27 00:32:46;;;;;;;3.80;2.25;;;15.60;99.90;;;;;;4216170;28;20044;-84
2023/06/27 00:34:47;;;;;;;9.07;2.08;;;15.60;99.90;;;;;;4217704;28;20549;-84
2023/06/27 00:36:47;;;;;;;4.78;2.00;;;15.60;99.90;;;;;;4217905;28;20467;-85
2023/06/27 00:38:48;;;;;;;3.92;1.58;;;15.60;99.90;;;;;;4211206;28;20442;-84
2023/06/27 00:40:49;;;;;;;5.70;1.80;;;15.60;99.90;;;;;;4218136;28;20496;-84
2023/06/27 00:42:50;;;;;;;5.00;1.77;;;15.60;99.90;;;;;;4215827;28;20051;-84
2023/06/27 00:44:50;;;;;;;6.85;1.75;;;15.50;99.90;;;;;;4216566;28;20111;-83
2023/06/27 00:46:51;;;;;;;5.95;1.80;;;15.50;99.90;;;;;;4216807;28;20044;-83
2023/06/27 00:48:53;;;;;;;9.93;2.25;;;15.50;99.90;;;;;;4216278;28;20036;-83
2023/06/27 00:50:57;;;;;;;5.35;1.60;;;15.50;99.90;;;;;;4216615;28;20162;-82
2023/06/27 00:53:02;;;;;;;4.82;1.75;;;15.40;99.90;;;;;;4215908;28;20055;-84
2023/06/27 00:55:04;;;;;;;7.40;1.85;;;15.40;99.90;;;;;;4198327;28;20091;-83
2023/06/27 00:57:05;;;;;;;4.28;2.20;;;15.40;99.90;;;;;;4214804;28;20380;-83
2023/06/27 00:59:06;;;;;;;6.30;2.08;;;15.40;99.90;;;;;;4200123;28;20051;-84
2023/06/27 01:01:07;;;;;;;7.05;1.90;;;15.40;99.90;;;;;;4200667;28;20481;-83
2023/06/27 01:03:08;;;;;;;10.10;1.92;;;15.30;99.90;;;;;;4215655;28;20044;-84
2023/06/27 01:05:09;;;;;;;9.75;2.63;;;15.30;99.90;;;;;;4200389;28;20446;-84
2023/06/27 01:07:22;;;;;;;9.90;3.72;;;15.30;99.90;;;;;;4199541;28;20075;-83
2023/06/27 01:09:41;;;;;;;8.90;2.10;;;15.30;99.90;;;;;;4198739;28;20047;-84
2023/06/27 01:12:02;;;;;;;5.07;1.90;;;15.30;99.90;;;;;;4199667;28;20477;-83
2023/06/27 01:14:04;;;;;;;3.50;1.88;;;15.20;99.90;;;;;;4199779;28;20098;-83
2023/06/27 01:16:05;;;;;;;8.05;2.85;;;15.20;99.90;;;;;;4213127;28;20054;-84
2023/06/27 01:18:08;;;;;;;4.90;1.83;;;15.20;99.90;;;;;;4215683;28;20130;-84
2023/06/27 01:20:11;;;;;;;8.35;2.33;;;15.20;99.90;;;;;;4213967;28;20056;-83
2023/06/27 01:22:17;;;;;;;6.82;1.80;;;15.10;99.90;;;;;;4215597;28;20044;-83
2023/06/27 01:24:18;;;;;;;13.15;3.00;;;15.10;99.90;;;;;;4216508;28;20052;-83
2023/06/27 01:26:18;;;;;;;2.58;1.77;;;15.10;99.90;;;;;;4214980;28;20427;-83
2023/06/27 01:28:19;;;;;;;3.53;1.95;;;15.10;99.90;;;;;;4216458;28;20044;-84
2023/06/27 01:30:20;;;;;;;7.82;2.33;;;15.10;99.90;;;;;;4215859;28;20040;-84
2023/06/27 01:32:35;;;;;;;3.97;1.77;;;15.10;99.90;;;;;;4210024;28;20464;-84
2023/06/27 01:35:15;;;;;;;4.68;2.00;;;15.10;99.90;;;;;;4201886;28;20484;-84
2023/06/27 01:37:23;;;;;;;3.78;1.50;;;15.00;99.90;;;;;;4197540;28;20504;-84
2023/06/27 01:39:35;;;;;;;5.70;1.90;;;15.00;99.90;;;;;;4209311;28;20052;-84
2023/06/27 01:41:38;;;;;;;8.05;3.10;;;15.00;99.90;;;;;;4215537;28;20040;-83
2023/06/27 01:43:41;;;;;;;10.48;2.25;;;15.00;99.90;;;;;;4213695;28;20555;-83
2023/06/27 01:45:42;;;;;;;6.53;1.60;;;15.00;99.90;;;;;;4213315;28;20381;-82
2023/06/27 01:47:44;;;;;;;9.52;1.90;;;15.00;99.90;;;;;;4215386;28;20400;-83
2023/06/27 01:49:45;;;;;;;5.10;1.52;;;15.00;99.90;;;;;;4215891;28;20032;-83
2023/06/27 01:51:46;;;;;;;4.68;2.22;;;15.00;99.90;;;;;;4211881;28;20044;-83
2023/06/27 01:53:47;;;;;;;7.43;2.00;;;15.00;99.90;;;;;;4215962;28;20567;-83
2023/06/27 01:55:47;;;;;;;12.07;2.42;;;15.00;99.90;;;;;;4231335;28;20122;-83
2023/06/27 01:57:50;;;;;;;4.85;2.10;;;15.00;99.90;;;;;;4213643;28;20109;-84
2023/06/27 01:59:52;;;;;;;4.50;2.10;;;15.00;99.90;;;;;;4215478;28;20575;-84
2023/06/27 02:01:52;;;;;;;4.00;1.80;;;15.00;99.90;;;;;;4215706;28;20083;-83
2023/06/27 02:03:54;;;;;;;5.68;1.90;;;15.00;99.90;;;;;;4214981;28;20055;-84
2023/06/27 02:05:55;;;;;;;4.00;1.80;;;15.00;99.90;;;;;;4232284;28;20048;-83
2023/06/27 02:07:59;;;;;;;9.13;3.28;;;14.90;99.90;;;;;;4212254;28;20040;-83
2023/06/27 02:10:02;;;;;;;5.05;1.98;;;14.90;99.90;;;;;;4199670;28;20512;-84
2023/06/27 02:12:11;;;;;;;4.03;2.00;;;14.90;99.90;;;;;;4216444;28;20059;-83
2023/06/27 02:14:15;;;;;;;5.43;1.60;;;14.90;99.90;;;;;;4201211;28;20402;-83
2023/06/27 02:16:18;;;;;;;4.88;2.78;;;14.90;99.90;;;;;;4199591;28;20041;-83
2023/06/27 02:18:26;;;;;;;5.68;2.00;;;14.90;99.90;;;;;;4216450;28;20059;-84
2023/06/27 02:20:28;;;;;;;6.13;1.98;;;14.80;99.90;;;;;;4201768;28;20550;-84
2023/06/27 02:22:29;;;;;;;5.60;2.22;;;14.80;99.90;;;;;;4205311;28;20041;-83
2023/06/27 02:24:31;;;;;;;4.47;2.67;;;14.80;99.90;;;;;;4202870;28;20110;-84
2023/06/27 02:26:32;;;;;;;4.25;2.03;;;14.80;99.90;;;;;;4215865;28;20031;-84
2023/06/27 02:28:32;;;;;;;5.00;2.28;;;14.80;99.90;;;;;;4245833;28;20068;-83
2023/06/27 02:30:34;;;;;;;3.17;1.73;;;14.80;99.90;;;;;;4229669;28;20127;-82
2023/06/27 02:32:34;;;;;;;4.45;2.00;;;14.70;99.90;;;;;;4227977;28;20078;-83
2023/06/27 02:34:35;;;;;;;3.80;2.25;;;14.70;99.90;;;;;;4226144;28;20113;-83
2023/06/27 02:36:37;;;;;;;11.63;2.70;;;14.70;99.90;;;;;;4227948;28;20044;-82
2023/06/27 02:38:37;;;;;;;6.88;2.20;;;14.70;99.90;;;;;;4226657;28;20059;-83
2023/06/27 02:40:38;;;;;;;8.05;2.67;;;14.70;99.90;;;;;;4226100;28;20094;-83
2023/06/27 02:42:39;;;;;;;10.98;2.83;;;14.70;99.90;;;;;;4222518;28;20047;-83
2023/06/27 02:44:40;;;;;;;6.97;2.38;;;14.60;99.90;;;;;;4219988;28;20052;-84
2023/06/27 02:46:40;;;;;;;7.03;1.85;;;14.60;99.90;;;;;;4213071;28;20515;-84
2023/06/27 02:48:41;;;;;;;7.03;2.45;;;14.60;99.90;;;;;;4234863;28;20074;-83
2023/06/27 02:50:45;;;;;;;6.78;2.35;;;14.60;99.90;;;;;;4216930;28;20043;-84
2023/06/27 02:52:48;;;;;;;7.38;2.65;;;14.60;99.90;;;;;;4200427;28;20052;-84
2023/06/27 02:54:49;;;;;;;5.05;2.22;;;14.60;99.90;;;;;;4219497;28;20048;-83
2023/06/27 02:56:50;;;;;;;4.20;1.88;;;14.60;99.90;;;;;;4219902;28;20083;-83
2023/06/27 02:58:50;;;;;;;7.72;2.05;;;14.50;99.90;;;;;;4219203;28;20066;-84
2023/06/27 03:00:51;;;;;;;5.82;1.88;;;14.50;99.90;;;;;;4218916;28;20059;-84
2023/06/27 03:02:53;;;;;;;6.93;3.17;;;14.50;99.90;;;;;;4218182;28;20051;-83
2023/06/27 03:04:53;;;;;;;5.47;2.20;;;14.50;99.90;;;;;;4212097;28;20089;-84
2023/06/27 03:06:54;;;;;;;9.07;2.50;;;14.50;99.90;;;;;;4217362;28;20505;-84
2023/06/27 03:08:58;;;;;;;9.43;2.90;;;14.50;99.90;;;;;;4217938;28;20071;-86
2023/06/27 03:10:59;;;;;;;8.05;2.75;;;14.50;99.90;;;;;;4201040;28;20086;-84
2023/06/27 03:13:00;;;;;;;5.35;1.95;;;14.50;99.90;;;;;;4234868;28;20047;-84
2023/06/27 03:15:04;;;;;;;9.65;2.38;;;14.50;99.90;;;;;;4218460;28;20076;-85
2023/06/27 03:17:04;;;;;;;8.00;1.95;;;14.50;99.90;;;;;;4217058;28;20051;-84
2023/06/27 03:19:05;;;;;;;4.75;2.15;;;14.50;99.90;;;;;;4232074;28;20043;-84
2023/06/27 03:21:06;;;;;;;5.13;2.13;;;14.50;99.90;;;;;;4210190;28;20511;-84
2023/06/27 03:23:07;;;;;;;4.65;1.80;;;14.50;99.90;;;;;;4216043;28;20101;-84
2023/06/27 03:25:10;;;;;;;5.55;2.00;;;14.50;99.90;;;;;;4217173;28;20051;-84
2023/06/27 03:27:10;;;;;;;5.05;2.08;;;14.50;99.90;;;;;;4217368;28;20098;-84
2023/06/27 03:29:11;;;;;;;7.35;2.05;;;14.50;99.90;;;;;;4215575;28;20048;-84
2023/06/27 03:31:12;;;;;;;4.18;1.67;;;14.50;99.90;;;;;;4198551;28;20049;-84
2023/06/27 03:33:12;;;;;;;13.52;2.25;;;14.50;99.90;;;;;;4216039;28;20044;-84
2023/06/27 03:35:13;;;;;;;4.88;1.85;;;14.50;99.90;;;;;;4217496;28;20032;-84
2023/06/27 03:37:14;;;;;;;4.13;1.85;;;14.50;99.90;;;;;;4216892;28;20381;-84
2023/06/27 03:39:14;;;;;;;4.43;1.92;;;14.50;99.90;;;;;;4214033;28;20119;-84
2023/06/27 03:41:16;;;;;;;7.18;2.17;;;14.60;99.90;;;;;;4218241;28;20044;-83
2023/06/27 03:43:17;;;;;;;6.65;1.75;;;14.60;99.90;;;;;;4233097;28;20107;-83
2023/06/27 03:45:19;;;;;;;3.38;2.15;;;14.50;99.90;;;;;;4217419;28;20063;-84
2023/06/27 03:47:22;;;;;;;5.07;1.80;;;14.60;99.90;;;;;;4215386;28;20485;-84
2023/06/27 03:49:23;;;;;;;2.72;1.67;;;14.60;99.90;;;;;;4232126;28;20065;-84
2023/06/27 03:51:26;;;;;;;4.68;1.50;;;14.60;99.90;;;;;;4216648;28;20155;-84
2023/06/27 03:53:26;;;;;;;8.30;1.95;;;14.70;99.90;;;;;;4215976;28;20476;-84
2023/06/27 03:55:27;;;;;;;4.78;1.73;;;14.70;99.90;;;;;;4214858;28;20044;-83
2023/06/27 03:57:28;;;;;;;7.90;3.17;;;14.70;99.90;;;;;;4217066;28;20058;-83
2023/06/27 03:59:28;;;;;;;7.63;1.60;;;14.70;99.90;;;;;;4217040;28;20484;-84
2023/06/27 04:01:30;;;;;;;3.17;1.58;;;14.70;99.90;;;;;;4214629;28;20127;-83
2023/06/27 04:03:31;;;;;;;5.50;2.08;;;14.80;99.90;;;;;;4218367;28;20076;-84
2023/06/27 04:05:32;;;;;;;5.63;1.70;;;14.70;99.90;;;;;;4214366;28;20040;-83
2023/06/27 04:07:32;;;;;;;5.47;1.67;;;14.80;99.90;;;;;;4216330;28;20052;-84
2023/06/27 04:09:35;;;;;;;3.22;1.95;;;14.80;99.90;;;;;;4214725;28;20510;-85
2023/06/27 04:11:36;;;;;;;6.82;2.20;;;14.80;99.90;;;;;;4216074;28;20490;-84
2023/06/27 04:13:37;;;;;;;5.80;1.85;;;14.80;99.90;;;;;;4210528;28;20048;-85
2023/06/27 04:15:40;;;;;;;6.35;2.20;;;14.90;99.90;;;;;;4216118;28;20048;-84
2023/06/27 04:17:41;;;;;;;4.03;1.60;;;14.90;99.90;;;;;;4217588;28;20446;-84
2023/06/27 04:19:42;;;;;;;5.38;1.80;;;14.90;99.90;;;;;;4216149;28;20051;-83
2023/06/27 04:21:43;;;;;;;3.97;1.70;;;14.90;99.90;;;;;;4214774;28;20120;-82
2023/06/27 04:23:44;;;;;;;3.17;1.67;;;14.90;99.90;;;;;;4214473;28;20123;-83
2023/06/27 04:26:03;;;;;;;4.35;1.73;;;14.90;99.90;;;;;;4215029;28;20389;-83
2023/06/27 04:28:04;;;;;;;4.20;1.95;;;15.00;99.90;;;;;;4210891;28;20047;-83
2023/06/27 04:30:05;;;;;;;3.97;2.00;;;15.00;99.90;;;;;;4219989;28;20044;-83
2023/06/27 04:32:09;;;;;;;5.40;1.48;;;15.00;99.90;;;;;;4224140;28;20047;-83
2023/06/27 04:34:10;;;;;;;6.13;1.48;;;15.00;99.90;;;;;;4215747;28;20093;-83
2023/06/27 04:36:15;;;;;;;6.15;1.60;;;15.10;99.90;;;;;;4216757;28;20040;-82
2023/06/27 04:38:18;;;;;;;6.07;1.60;;;15.10;99.90;;;;;;4216795;28;20492;-83
2023/06/27 04:40:18;;;;;;;6.68;1.45;;;15.10;99.90;;;;;;4216950;28;20472;-82
2023/06/27 04:42:19;;;;;;;7.88;2.40;;;15.20;99.90;;;;;;4216511;28;20075;-83
2023/06/27 04:44:21;;;;;;;4.55;1.73;;;15.20;99.90;;;;;;4212240;28;20045;-83
2023/06/27 04:46:22;;;;;;;7.93;1.80;;;15.20;99.90;;;;;;4198180;28;20044;-83
2023/06/27 04:48:22;;;;;;;5.22;1.60;;;15.30;99.90;;;;;;4204097;28;20404;-83
2023/06/27 04:50:23;;;;;;;4.15;1.63;;;15.30;99.90;;;;;;4216952;28;20137;-83
2023/06/27 04:52:26;;;;;;;7.72;1.55;;;15.30;99.90;;;;;;4215962;28;20110;-81
2023/06/27 04:54:27;;;;;;;6.50;1.48;;;15.40;99.90;;;;;;4197563;28;20045;-83
2023/06/27 04:56:28;;;;;;;6.13;2.05;;;15.40;99.90;;;;;;4215310;28;20056;-83
2023/06/27 04:58:29;;;;;;;3.25;1.48;;;15.50;99.90;;;;;;4218217;28;20066;-84
2023/06/27 05:00:29;;;;;;;4.32;1.48;;;15.50;99.90;;;;;;4214085;28;20126;-84
2023/06/27 05:02:30;;;;;;;5.03;1.90;;;15.60;99.90;;;;;;4214750;28;20075;-84
2023/06/27 05:04:31;;;;;;;8.90;1.60;;;15.60;99.90;;;;;;4217620;28;20036;-82
2023/06/27 05:06:33;;;;;;;4.45;1.50;;;15.70;99.90;;;;;;4216327;28;20086;-83
2023/06/27 05:08:35;;;;;;;8.77;1.60;;;15.70;99.90;;;;;;4216518;28;20046;-83
2023/06/27 05:10:36;;;;;;;5.40;1.90;;;15.80;99.90;;;;;;4232431;28;20044;-84
2023/06/27 05:12:37;;;;;;;3.50;1.50;;;15.80;99.90;;;;;;4216826;28;20483;-83
2023/06/27 05:14:38;;;;;;;5.05;1.40;;;15.90;99.90;;;;;;4217486;28;20148;-84
2023/06/27 05:16:39;;;;;;;8.10;1.38;;;16.00;99.90;;;;;;4216131;28;20039;-84
2023/06/27 05:18:41;;;;;;;10.55;1.58;;;16.00;99.90;;;;;;4226087;28;20054;-86
2023/06/27 05:20:47;;;;;;;5.60;1.48;;;16.10;99.90;;;;;;4214425;28;20499;-85
2023/06/27 05:22:48;;;;;;;3.53;1.35;;;16.20;99.90;;;;;;4198920;28;20052;-85
2023/06/27 05:24:48;;;;;;;5.60;1.67;;;16.30;99.90;;;;;;4215585;28;20123;-84
2023/06/27 05:26:49;;;;;;;4.20;1.90;;;16.30;99.90;;;;;;4217497;28;20119;-85
2023/06/27 05:28:50;;;;;;;6.15;1.70;;;16.40;99.90;;;;;;4216739;28;20048;-85
2023/06/27 05:30:51;;;;;;;9.93;1.60;;;16.50;99.90;;;;;;4216722;28;20052;-86
2023/06/27 05:32:51;;;;;;;5.55;1.73;;;16.50;99.90;;;;;;4213243;28;20044;-85
2023/06/27 05:34:53;;;;;;;5.57;1.50;;;16.50;99.90;;;;;;4210270;28;20036;-85
2023/06/27 05:36:54;;;;;;;6.47;1.70;;;16.60;99.90;;;;;;4200832;28;20037;-85
2023/06/27 05:38:55;;;;;;;6.63;1.30;;;16.60;99.90;;;;;;4200862;28;20116;-84
2023/06/27 05:40:57;;;;;;;8.35;1.73;;;16.70;99.90;;;;;;4199800;28;20075;-84
2023/06/27 05:42:57;;;;;;;6.55;1.67;;;16.60;99.90;;;;;;4199746;28;20051;-85
2023/06/27 05:44:58;;;;;;;8.60;1.40;;;16.90;99.90;;;;;;4199351;28;20049;-85
2023/06/27 05:46:59;;;;;;;5.22;2.10;;;16.90;99.90;;;;;;4200837;28;20167;-85
2023/06/27 05:49:00;;;;;;;4.95;1.80;;;17.00;99.90;;;;;;4199799;28;20052;-84
2023/06/27 05:51:01;;;;;;;6.03;1.67;;;17.10;99.90;;;;;;4200979;28;20045;-85
2023/06/27 05:53:02;;;;;;;3.13;1.13;;;17.10;99.90;;;;;;4200375;28;20116;-85
2023/06/27 05:55:03;;;;;;;6.43;1.63;;;17.20;99.90;;;;;;4197955;28;20068;-85
2023/06/27 05:57:04;;;;;;;5.88;1.45;;;17.20;99.90;;;;;;4206844;28;20032;-85
2023/06/27 05:59:05;;;;;;;4.40;1.27;;;17.30;99.90;;;;;;4218533;28;20036;-85
2023/06/27 06:01:07;;;;;;;6.13;1.48;;;17.40;99.90;;;;;;4218930;28;20055;-85
2023/06/27 06:03:08;;;;;;;7.43;1.40;;;17.50;99.90;;;;;;4201785;28;20040;-85
2023/06/27 06:05:10;;;;;;;6.25;1.38;;;17.50;99.90;;;;;;4217463;28;20046;-85
2023/06/27 06:07:11;;;;;;;6.38;2.03;;;17.60;99.90;;;;;;4218944;28;20458;-84
2023/06/27 06:09:12;;;;;;;8.82;1.63;;;17.70;99.90;;;;;;4234352;28;20101;-85
2023/06/27 06:11:12;;;;;;;4.20;1.20;;;17.80;99.90;;;;;;4201423;28;20127;-84
2023/06/27 06:13:13;;;;;;;10.27;2.35;;;17.80;99.90;;;;;;4213019;28;20048;-84
2023/06/27 06:15:14;;;;;;;5.22;1.27;;;17.90;99.90;;;;;;4218659;28;20422;-84
2023/06/27 06:17:15;;;;;;;10.43;1.75;;;18.00;99.90;;;;;;4235143;28;20114;-84
2023/06/27 06:19:16;;;;;;;11.05;1.50;;;18.10;99.90;;;;;;4219390;28;20088;-84
2023/06/27 06:21:17;;;;;;;7.85;1.40;;;18.20;99.90;;;;;;4218834;28;20369;-85
2023/06/27 06:23:19;;;;;;;4.93;1.00;;;18.30;99.90;;;;;;4219266;28;20138;-84
2023/06/27 06:25:20;;;;;;;7.22;1.10;;;17.40;99.90;;;;;;4219360;28;20083;-85
2023/06/27 06:27:21;;;;;;;9.05;1.35;;;18.40;99.90;;;;;;4220164;28;20036;-85
2023/06/27 06:29:22;;;;;;;4.40;1.00;;;18.50;99.90;;;;;;4217755;28;20040;-85
2023/06/27 06:31:24;;;;;;;5.68;1.05;;;18.40;99.90;;;;;;4212033;28;20120;-85
2023/06/27 06:33:25;;;;;;;7.00;1.13;;;18.60;99.90;;;;;;4202258;28;20531;-84
2023/06/27 06:35:26;;;;;;;4.57;1.00;;;18.70;99.90;;;;;;4216887;28;20087;-84
2023/06/27 06:37:27;;;;;;;5.82;1.17;;;18.80;99.90;;;;;;4202215;28;20047;-89
2023/06/27 06:39:28;;;;;;;5.72;1.13;;;18.80;99.90;;;;;;4218841;28;20047;-90
2023/06/27 06:41:29;;;;;;;6.22;1.10;;;18.90;99.90;;;;;;4204223;28;20049;-91
2023/06/27 06:43:29;;;;;;;5.63;1.23;;;19.00;99.90;;;;;;4203592;28;20051;-90
2023/06/27 06:45:30;;;;;;;7.65;0.98;;;19.10;99.90;;;;;;4219890;28;20044;-90
2023/06/27 06:47:32;;;;;;;6.53;1.05;;;19.20;99.90;;;;;;4203121;28;20063;-90
2023/06/27 06:49:32;;;;;;;6.25;1.60;;;19.30;99.90;;;;;;4202292;28;20476;-89
2023/06/27 06:51:36;;;;;;;5.70;1.00;;;19.30;99.90;;;;;;4202234;28;20052;-89
2023/06/27 06:53:37;;;;;;;6.13;1.00;;;19.40;99.90;;;;;;4202260;28;20094;-89
2023/06/27 06:55:41;;;;;;;6.60;1.00;;;19.50;99.90;;;;;;4202814;28;20103;-90
2023/06/27 06:57:42;;;;;;;6.93;0.85;;;19.60;99.90;;;;;;4203391;28;20497;-90
2023/06/27 06:59:42;;;;;;;7.15;1.00;;;19.70;99.90;;;;;;4203061;28;20106;-90
2023/06/27 07:01:44;;;;;;;8.43;1.10;;;19.80;99.90;;;;;;4203356;28;20053;-89
2023/06/27 07:03:45;;;;;;;4.55;1.08;;;19.90;99.90;;;;;;4202830;28;20070;-86
2023/06/27 07:05:48;;;;;;;5.82;0.77;;;20.00;99.90;;;;;;4203788;28;20508;-93
2023/06/27 07:07:52;;;;;;;6.43;0.70;;;20.10;99.90;;;;;;4200544;28;20054;-86
2023/06/27 07:09:53;;;;;;;3.90;0.80;;;20.20;99.90;;;;;;4202409;28;20052;-91
2023/06/27 07:11:57;;;;;;;6.70;0.85;;;20.30;99.90;;;;;;4203022;28;20545;-91
2023/06/27 07:14:00;;;;;;;3.92;0.90;;;20.40;99.90;;;;;;4202872;28;20072;-90
2023/06/27 07:16:01;;;;;;;5.85;0.80;;;20.50;99.90;;;;;;4222280;28;20479;-88
2023/06/27 07:18:03;;;;;;;4.80;0.90;;;20.50;99.90;;;;;;4219113;28;20040;-91
2023/06/27 07:20:07;;;;;;;7.68;1.90;;;20.60;99.90;;;;;;4219358;28;20115;-91
2023/06/27 07:22:08;;;;;;;4.30;0.95;;;20.80;99.90;;;;;;4219808;28;20040;-91
2023/06/27 07:24:09;;;;;;;4.85;0.85;;;21.00;99.90;;;;;;4216247;28;20054;-88
2023/06/27 07:26:10;;;;;;;4.65;0.80;;;20.90;99.90;;;;;;4211762;28;20096;-89
2023/06/27 07:28:10;;;;;;;3.78;1.20;;;20.80;99.90;;;;;;4211591;28;20040;-89
2023/06/27 07:30:12;;;;;;;3.47;0.80;;;20.70;99.90;;;;;;4218852;28;20028;-88
2023/06/27 07:32:13;;;;;;;1.80;0.60;;;20.60;99.90;;;;;;4221487;28;20036;-90
2023/06/27 07:34:16;;;;;;;4.03;1.08;;;20.50;99.90;;;;;;4217552;28;20056;-89
2023/06/27 07:36:18;;;;;;;5.22;0.80;;;20.50;99.90;;;;;;4219028;28;20048;-90
2023/06/27 07:38:19;;;;;;;4.93;0.90;;;20.40;99.90;;;;;;4213248;28;20072;-90
2023/06/27 07:40:19;;;;;;;6.88;0.65;;;20.40;99.90;;;;;;4217609;28;20488;-89
2023/06/27 07:42:20;;;;;;;5.47;0.80;;;20.30;99.90;;;;;;4210896;28;20080;-90
2023/06/27 07:44:22;;;;;;;4.75;1.25;;;20.20;99.90;;;;;;4202414;28;20083;-90
2023/06/27 07:46:23;;;;;;;3.78;1.45;;;20.10;99.90;;;;;;4210481;28;20089;-90
2023/06/27 07:48:23;;;;;;;9.27;0.98;;;20.10;99.90;;;;;;4215765;28;20135;-90
2023/06/27 07:50:25;;;;;;;4.22;0.80;;;20.10;99.90;;;;;;4216272;28;20105;-90
2023/06/27 07:52:26;;;;;;;8.07;0.95;;;20.10;99.90;;;;;;4217388;28;20056;-90
2023/06/27 07:54:28;;;;;;;4.32;1.85;;;20.20;99.90;;;;;;4218488;28;20078;-92
2023/06/27 07:56:30;;;;;;;8.98;1.48;;;20.30;99.90;;;;;;4217734;28;20048;-91
2023/06/27 07:58:31;;;;;;;4.05;0.70;;;20.50;99.90;;;;;;4219081;28;20040;-88
2023/06/27 08:00:34;;;;;;;6.78;1.00;;;20.70;99.90;;;;;;4216953;28;20393;-90
2023/06/27 08:02:34;;;;;;;7.20;0.90;;;20.90;99.90;;;;;;4218009;28;20476;-90
2023/06/27 08:04:35;;;;;;;3.53;0.65;;;21.20;99.90;;;;;;4199425;28;20067;-89
2023/06/27 08:06:36;;;;;;;3.42;1.63;;;21.20;99.50;;;;;;4217833;28;20056;-88
2023/06/27 08:08:37;;;;;;;2.83;0.40;;;21.30;99.40;;;;;;4212252;28;20040;-85
2023/06/27 08:10:38;;;;;;;3.33;0.82;;;21.60;99.40;;;;;;4214397;28;20595;-88
2023/06/27 08:12:39;;;;;;;4.25;0.80;;;21.80;99.10;;;;;;4217681;28;20043;-89
2023/06/27 08:14:42;;;;;;;8.48;1.40;;;22.00;98.60;;;;;;4199734;28;20040;-90
2023/06/27 08:16:45;;;;;;;2.55;0.60;;;22.00;98.10;;;;;;4214759;28;20115;-90
2023/06/27 08:18:45;;;;;;;2.92;1.00;;;22.00;97.70;;;;;;4214707;28;20047;-90
2023/06/27 08:20:46;;;;;;;4.00;0.70;;;21.90;97.70;;;;;;4217782;28;20048;-89
2023/06/27 08:22:47;;;;;;;5.60;0.75;;;21.80;98.00;;;;;;4218087;28;20090;-89
2023/06/27 08:24:48;;;;;;;4.38;0.82;;;21.70;97.80;;;;;;4217596;28;20101;-88
2023/06/27 08:26:49;;;;;;;7.18;0.80;;;21.70;97.40;;;;;;4217561;28;20058;-89
2023/06/27 08:28:50;;;;;;;3.28;0.90;;;21.70;97.30;;;;;;4217260;28;20047;-89
2023/06/27 08:30:51;;;;;;;5.93;1.63;;;21.90;97.00;;;;;;4218735;28;20096;-89
2023/06/27 08:32:52;;;;;;;2.83;0.50;;;22.20;96.80;;;;;;4216568;28;20047;-89
2023/06/27 08:34:53;;;;;;;3.22;0.85;;;22.50;96.40;;;;;;4217531;28;20114;-89
2023/06/27 08:36:54;;;;;;;9.48;1.33;;;22.70;96.10;;;;;;4215531;28;20488;-89
2023/06/27 08:38:55;;;;;;;4.13;0.32;;;22.80;95.50;;;;;;4226875;28;20070;-90
2023/06/27 08:40:56;;;;;;;5.05;0.85;;;22.70;95.20;;;;;;4221547;28;20055;-89
2023/06/27 08:42:56;;;;;;;3.75;0.90;;;22.60;95.10;;;;;;4210290;28;20066;-89
2023/06/27 08:45:01;;;;;;;7.55;0.90;;;22.60;95.10;;;;;;4218173;28;20048;-89
2023/06/27 08:47:05;;;;;;;5.72;0.80;;;22.30;94.20;;;;;;4216264;28;20044;-91
2023/06/27 08:49:10;;;;;;;4.68;1.00;;;22.60;94.50;;;;;;4217389;28;20048;-90
2023/06/27 08:51:14;;;;;;;4.45;0.88;;;22.70;94.70;;;;;;4216698;28;20040;-89
2023/06/27 08:53:17;;;;;;;6.80;0.73;;;22.90;94.60;;;;;;4214543;28;20820;-89
2023/06/27 08:55:51;;;;;;;3.47;0.52;;;22.90;93.80;;;;;;4216168;28;20135;-89
2023/06/27 08:57:55;;;;;;;3.70;0.40;;;22.90;92.70;;;;;;4218350;28;20048;-90
2023/06/27 08:59:57;;;;;;;2.40;0.60;;;22.90;93.50;;;;;;4217628;28;20054;-91
2023/06/27 09:01:59;;;;;;;8.52;0.80;;;22.80;93.40;;;;;;4217923;28;20047;-87
2023/06/27 09:04:01;;;;;;;3.00;0.70;;;22.70;93.10;;;;;;4216644;28;20051;-89
2023/06/27 09:06:07;;;;;;;5.32;1.02;;;22.50;93.00;;;;;;4216938;28;20040;-89
2023/06/27 09:08:09;;;;;;;3.65;0.45;;;22.40;92.80;;;;;;4217097;28;20541;-88
2023/06/27 09:10:10;;;;;;;1.77;0.50;;;22.30;93.10;;;;;;4216259;28;20512;-89
2023/06/27 09:12:12;;;;;;;3.83;0.80;;;22.40;93.10;;;;;;4217902;28;20055;-89
2023/06/27 09:14:13;;;;;;;5.47;0.55;;;22.60;93.00;;;;;;4216990;28;20456;-90
2023/06/27 09:16:14;;;;;;;3.38;0.50;;;22.50;92.50;;;;;;4217373;28;20040;-90
2023/06/27 09:18:14;;;;;;;3.45;1.08;;;22.70;92.60;;;;;;4211783;28;20051;-90
2023/06/27 09:20:19;;;;;;;3.80;0.77;;;22.80;92.70;;;;;;4218818;28;20042;-90
2023/06/27 09:22:23;;;;;;;3.38;0.52;;;23.00;92.50;;;;;;4218510;28;20403;-90
2023/06/27 09:24:25;;;;;;;2.90;0.88;;;23.00;92.30;;;;;;4216473;28;20068;-90
2023/06/27 09:26:27;;;;;;;1.08;0.47;;;23.10;92.20;;;;;;4215722;28;20114;-89
2023/06/27 09:28:28;;;;;;;5.38;0.80;;;23.30;92.10;;;;;;4214459;28;20055;-88
2023/06/27 09:30:30;;;;;;;2.88;0.80;;;23.40;92.10;;;;;;4215937;28;20090;-89
2023/06/27 09:32:32;;;;;;;3.17;0.88;;;23.50;91.60;;;;;;4216056;28;20075;-88
2023/06/27 09:34:36;;;;;;;5.65;0.55;;;23.60;91.50;;;;;;4216863;28;20040;-88
2023/06/27 09:36:38;;;;;;;3.83;0.85;;;23.70;91.40;;;;;;4216483;28;20044;-88
2023/06/27 09:38:39;;;;;;;3.15;0.60;;;23.70;91.20;;;;;;4214191;28;20170;-88
2023/06/27 09:40:41;;;;;;;3.92;0.70;;;23.60;91.40;;;;;;4216492;28;20040;-87
2023/06/27 09:42:53;;;;;;;6.47;0.70;;;23.40;91.20;;;;;;4215395;28;20522;-88
2023/06/27 09:44:54;;;;;;;4.15;0.60;;;23.30;91.20;;;;;;4217239;28;20054;-88
2023/06/27 09:46:55;;;;;;;4.20;0.90;;;23.50;91.40;;;;;;4211204;28;20044;-87
2023/06/27 09:48:56;;;;;;;3.70;1.00;;;23.80;90.80;;;;;;4216281;28;20063;-88
2023/06/27 09:51:07;;;;;;;3.58;0.50;;;24.00;90.30;;;;;;4217281;28;20047;-88
2023/06/27 09:53:08;;;;;;;3.78;0.63;;;24.00;90.30;;;;;;4215447;28;20094;-88
2023/06/27 09:55:19;;;;;;;2.25;0.60;;;24.10;90.40;;;;;;4215021;28;20074;-88
2023/06/27 09:57:23;;;;;;;2.88;0.70;;;24.20;90.10;;;;;;4213491;28;20052;-87
2023/06/27 09:59:26;;;;;;;4.68;0.90;;;24.30;90.40;;;;;;4215486;28;20041;-89
2023/06/27 10:01:28;;;;;;;3.70;0.80;;;24.30;89.70;;;;;;4217293;28;20444;-88
2023/06/27 10:03:33;;;;;;;2.90;0.70;;;24.50;89.30;;;;;;4219175;28;20040;-88
2023/06/27 10:05:34;;;;;;;6.63;0.80;;;24.70;88.40;;;;;;4216700;28;20051;-87
2023/06/27 10:07:39;;;;;;;7.40;0.77;;;24.80;89.00;;;;;;4216026;28;20135;-88
2023/06/27 10:09:40;;;;;;;1.88;0.68;;;25.00;87.40;;;;;;4216001;28;20043;-88
2023/06/27 10:11:41;;;;;;;4.15;1.10;;;25.20;87.80;;;;;;4216945;28;20045;-90
2023/06/27 10:13:43;;;;;;;2.00;0.50;;;25.30;87.60;;;;;;4217751;28;20132;-87
2023/06/27 10:15:44;;;;;;;4.80;0.80;;;25.30;87.30;;;;;;4225730;28;20062;-87
2023/06/27 10:17:45;;;;;;;2.75;0.75;;;25.20;87.30;;;;;;4215202;28;20044;-87
2023/06/27 10:19:46;;;;;;;1.60;0.60;;;25.00;86.90;;;;;;4216369;28;20051;-89
2023/06/27 10:21:48;;;;;;;3.70;0.57;;;24.80;86.10;;;;;;4216071;28;20562;-88
2023/06/27 10:23:52;;;;;;;4.93;0.60;;;24.80;85.50;;;;;;4216166;28;20476;-88
2023/06/27 10:25:53;;;;;;;5.38;1.10;;;25.00;85.80;;;;;;4216471;28;20079;-88
2023/06/27 10:28:07;;;;;;;4.22;1.05;;;25.10;85.80;;;;;;4215639;28;20059;-89
2023/06/27 10:30:26;;;;;;;5.40;0.82;;;24.90;84.40;;;;;;4216679;28;20499;-90
2023/06/27 10:32:40;;;;;;;5.38;1.35;;;24.70;85.30;;;;;;4215285;28;20043;-90
2023/06/27 10:34:43;;;;;;;7.03;0.80;;;24.60;85.40;;;;;;4215807;28;20044;-89